Time;durP1;ratioP1;P1;durP2;ratioP2;P2;SDS_P1;SDS_P2;PMS_P1;PMS_P2;Temp;Humidity;BMP_temperature;BMP_pressure;BME280_temperature;BME280_humidity;BME280_pressure;Samples;Min_cycle;Max_cycle;Signal;HPM_P1;HPM_P2
2024/02/11 00:00:31;;;;;;;44.53;31.87;;;9.50;99.90;;;;;;5074932;28;20470;-81
2024/02/11 00:02:58;;;;;;;54.80;35.03;;;9.50;99.90;;;;;;5075654;28;20445;-81
2024/02/11 00:05:27;;;;;;;51.27;32.67;;;9.50;99.90;;;;;;5075045;28;20537;-80
2024/02/11 00:07:53;;;;;;;44.97;31.20;;;9.50;99.90;;;;;;5079290;28;20427;-81
2024/02/11 00:10:20;;;;;;;48.63;31.93;;;9.50;99.90;;;;;;5066526;28;20473;-81
2024/02/11 00:12:47;;;;;;;51.77;35.57;;;9.50;99.90;;;;;;5061966;28;20438;-81
2024/02/11 00:15:16;;;;;;;56.90;36.30;;;9.50;99.90;;;;;;5068128;28;20423;-81
2024/02/11 00:17:46;;;;;;;55.50;34.50;;;9.50;99.90;;;;;;5072278;28;20428;-81
2024/02/11 00:20:14;;;;;;;50.77;34.53;;;9.50;99.90;;;;;;5073011;28;20454;-80
2024/02/11 00:22:41;;;;;;;57.17;35.40;;;9.50;99.90;;;;;;5072123;28;20525;-82
2024/02/11 00:25:09;;;;;;;54.83;35.00;;;9.50;99.90;;;;;;5073886;28;20469;-81
2024/02/11 00:27:37;;;;;;;52.60;37.10;;;9.50;99.90;;;;;;5073505;28;20974;-81
2024/02/11 00:30:05;;;;;;;55.10;36.27;;;9.50;99.90;;;;;;5073696;28;20452;-81
2024/02/11 00:32:34;;;;;;;57.80;34.30;;;9.50;99.90;;;;;;5072949;28;20397;-82
2024/02/11 00:35:00;;;;;;;56.83;35.93;;;9.50;99.90;;;;;;5069481;28;20465;-81
2024/02/11 00:37:29;;;;;;;57.10;38.67;;;9.50;99.90;;;;;;5068442;28;20433;-82
2024/02/11 00:39:56;;;;;;;56.80;36.50;;;9.50;99.90;;;;;;5074926;28;20509;-82
2024/02/11 00:42:27;;;;;;;60.03;37.40;;;9.50;99.90;;;;;;5069986;28;21009;-82
2024/02/11 00:44:54;;;;;;;63.33;38.67;;;9.50;99.90;;;;;;5063285;28;20433;-81
2024/02/11 00:47:21;;;;;;;60.50;37.47;;;9.50;99.90;;;;;;5061439;28;20507;-82
2024/02/11 00:49:49;;;;;;;61.77;40.90;;;9.50;99.90;;;;;;5061002;28;20465;-82
2024/02/11 00:52:16;;;;;;;58.00;37.00;;;9.50;99.90;;;;;;5060799;28;20536;-83
2024/02/11 00:54:43;;;;;;;62.20;38.03;;;9.40;99.90;;;;;;5059919;28;20443;-83
2024/02/11 00:57:10;;;;;;;64.10;38.70;;;9.50;99.90;;;;;;5058562;28;20515;-83
2024/02/11 00:59:41;;;;;;;56.80;38.07;;;9.40;99.90;;;;;;5058851;28;20438;-80
2024/02/11 01:02:09;;;;;;;62.83;38.83;;;9.40;99.90;;;;;;5060888;28;20434;-82
2024/02/11 01:04:38;;;;;;;64.53;39.67;;;9.40;99.90;;;;;;5059603;28;20456;-81
2024/02/11 01:07:07;;;;;;;59.27;38.00;;;9.40;99.90;;;;;;5059605;28;20964;-81
2024/02/11 01:09:34;;;;;;;58.17;37.77;;;9.40;99.90;;;;;;5059941;28;20559;-82
2024/02/11 01:12:01;;;;;;;72.03;42.00;;;9.40;99.90;;;;;;5059392;28;20557;-81
2024/02/11 01:14:30;;;;;;;66.77;36.83;;;9.40;99.90;;;;;;5059040;28;20417;-81
2024/02/11 01:16:56;;;;;;;55.80;37.23;;;9.40;99.90;;;;;;5059720;28;20794;-81
2024/02/11 01:19:23;;;;;;;59.37;38.27;;;9.40;99.90;;;;;;5065615;28;20945;-81
2024/02/11 01:21:53;;;;;;;62.50;36.90;;;9.40;99.90;;;;;;5071542;28;20480;-81
2024/02/11 01:24:21;;;;;;;60.67;38.47;;;9.40;99.90;;;;;;5059013;28;20532;-80
2024/02/11 01:26:49;;;;;;;62.50;36.30;;;9.40;99.90;;;;;;5058999;28;20543;-82
2024/02/11 01:29:17;;;;;;;68.63;40.23;;;9.40;99.90;;;;;;5059446;28;20784;-81
2024/02/11 01:31:44;;;;;;;64.93;37.97;;;9.30;99.90;;;;;;5058666;28;20460;-81
2024/02/11 01:34:11;;;;;;;60.50;35.83;;;9.30;99.90;;;;;;5058985;28;20485;-81
2024/02/11 01:36:38;;;;;;;61.67;36.40;;;9.30;99.90;;;;;;5073687;28;20461;-80
2024/02/11 01:39:05;;;;;;;64.20;39.87;;;9.30;99.90;;;;;;5076655;28;20460;-80
2024/02/11 01:41:33;;;;;;;70.67;38.20;;;9.30;99.90;;;;;;5076208;28;20438;-80
2024/02/11 01:44:00;;;;;;;64.00;37.43;;;9.30;99.90;;;;;;5075255;28;20470;-80
2024/02/11 01:46:27;;;;;;;73.13;41.07;;;9.30;99.90;;;;;;5075884;28;20549;-80
2024/02/11 01:48:54;;;;;;;72.47;38.83;;;9.20;99.90;;;;;;5066352;28;20420;-82
2024/02/11 01:51:22;;;;;;;65.53;38.07;;;9.20;99.90;;;;;;5065401;28;20465;-82
2024/02/11 01:53:49;;;;;;;72.23;39.77;;;9.20;99.90;;;;;;5062312;28;20445;-81
2024/02/11 01:56:20;;;;;;;76.33;43.53;;;9.20;99.90;;;;;;5062176;28;20446;-83
2024/02/11 01:58:49;;;;;;;77.90;40.33;;;9.20;99.90;;;;;;5060663;28;20445;-82
2024/02/11 02:01:17;;;;;;;77.43;40.47;;;9.20;99.90;;;;;;5059835;28;20469;-83
2024/02/11 02:03:45;;;;;;;70.43;40.80;;;9.20;99.90;;;;;;5059247;28;20445;-82
2024/02/11 02:06:12;;;;;;;74.03;42.03;;;9.20;99.90;;;;;;5058681;28;21030;-82
2024/02/11 02:08:40;;;;;;;78.80;42.57;;;9.10;99.90;;;;;;5059570;28;20533;-82
2024/02/11 02:11:07;;;;;;;73.33;40.73;;;9.10;99.90;;;;;;5058561;28;20466;-81
2024/02/11 02:13:34;;;;;;;69.73;38.87;;;9.10;99.90;;;;;;5059382;28;20467;-82
2024/02/11 02:16:02;;;;;;;74.40;39.40;;;9.10;99.90;;;;;;5058798;28;20517;-81
2024/02/11 02:18:34;;;;;;;71.63;40.80;;;9.00;99.90;;;;;;5058674;28;20882;-82
2024/02/11 02:21:02;;;;;;;71.00;41.40;;;9.10;99.90;;;;;;5059385;28;20500;-82
2024/02/11 02:23:31;;;;;;;76.60;40.83;;;9.10;99.90;;;;;;5059606;28;20409;-81
2024/02/11 02:25:57;;;;;;;83.53;42.23;;;9.10;99.90;;;;;;5059695;28;20485;-81
2024/02/11 02:28:25;;;;;;;80.03;43.07;;;9.10;99.90;;;;;;5057614;28;20452;-81
2024/02/11 02:30:52;;;;;;;81.50;42.00;;;9.10;99.90;;;;;;5058996;28;20485;-81
2024/02/11 02:33:19;;;;;;;71.63;41.43;;;9.00;99.90;;;;;;5074588;28;20460;-81
2024/02/11 02:35:45;;;;;;;70.73;37.40;;;9.00;99.90;;;;;;5066501;28;20420;-82
2024/02/11 02:38:12;;;;;;;76.57;42.43;;;9.00;99.90;;;;;;5066345;28;20505;-81
2024/02/11 02:40:41;;;;;;;79.00;40.07;;;9.10;99.90;;;;;;5074592;28;20447;-79
2024/02/11 02:43:11;;;;;;;66.17;40.30;;;9.00;99.90;;;;;;5074643;28;20445;-80
2024/02/11 02:45:38;;;;;;;68.97;38.20;;;9.00;99.90;;;;;;5073162;28;20438;-80
2024/02/11 02:48:07;;;;;;;84.50;42.13;;;9.00;99.90;;;;;;5073058;28;20532;-81
2024/02/11 02:50:34;;;;;;;80.17;40.77;;;9.00;99.90;;;;;;5074573;28;20462;-81
2024/02/11 02:53:01;;;;;;;71.80;39.27;;;9.00;99.90;;;;;;5076050;28;20491;-80
2024/02/11 02:55:28;;;;;;;78.00;41.13;;;9.00;99.90;;;;;;5079475;28;20516;-80
2024/02/11 02:57:56;;;;;;;68.80;39.27;;;9.00;99.90;;;;;;5073231;28;20445;-82
2024/02/11 03:00:23;;;;;;;77.23;41.23;;;9.00;99.90;;;;;;5065788;28;20469;-81
2024/02/11 03:02:52;;;;;;;65.80;37.83;;;8.90;99.90;;;;;;5069378;28;20467;-81
2024/02/11 03:05:22;;;;;;;71.80;38.20;;;8.90;99.90;;;;;;5064770;28;20449;-81
2024/02/11 03:07:52;;;;;;;62.70;37.47;;;9.00;99.90;;;;;;5062620;28;20879;-82
2024/02/11 03:10:21;;;;;;;74.00;37.37;;;9.00;99.90;;;;;;5063440;28;20458;-82
2024/02/11 03:12:48;;;;;;;68.17;37.10;;;9.00;99.90;;;;;;5063522;28;20472;-82
2024/02/11 03:15:16;;;;;;;71.20;38.23;;;8.90;99.90;;;;;;5063888;28;20876;-83
2024/02/11 03:17:44;;;;;;;73.63;39.13;;;8.90;99.90;;;;;;5064371;28;20525;-82
2024/02/11 03:20:14;;;;;;;68.60;36.57;;;8.90;99.90;;;;;;5074384;28;20461;-82
2024/02/11 03:22:43;;;;;;;69.37;38.27;;;8.90;99.90;;;;;;5078138;28;20492;-82
2024/02/11 03:25:11;;;;;;;71.90;38.50;;;8.90;99.90;;;;;;5076627;28;20480;-82
2024/02/11 03:27:39;;;;;;;64.77;37.57;;;8.90;99.90;;;;;;5070658;28;20509;-83
2024/02/11 03:30:08;;;;;;;67.10;35.63;;;8.90;99.90;;;;;;5067521;28;20455;-83
2024/02/11 03:32:36;;;;;;;74.00;36.83;;;8.90;99.90;;;;;;5066579;28;20468;-82
2024/02/11 03:35:04;;;;;;;72.50;36.40;;;8.90;99.90;;;;;;5068452;28;20445;-82
2024/02/11 03:37:33;;;;;;;70.27;36.87;;;8.90;99.90;;;;;;5072550;28;20476;-83
2024/02/11 03:40:00;;;;;;;66.73;36.53;;;8.90;99.90;;;;;;5065250;28;20465;-83
2024/02/11 03:42:27;;;;;;;73.27;39.77;;;8.80;99.90;;;;;;5062909;28;20536;-83
2024/02/11 03:44:54;;;;;;;77.30;37.90;;;8.90;99.90;;;;;;5062205;28;20487;-83
2024/02/11 03:47:22;;;;;;;64.63;36.13;;;8.90;99.90;;;;;;5061496;28;20482;-82
2024/02/11 03:49:52;;;;;;;72.47;38.30;;;8.90;99.90;;;;;;5061108;28;20514;-82
2024/02/11 03:52:19;;;;;;;65.53;36.53;;;8.90;99.90;;;;;;5062595;28;20540;-82
2024/02/11 03:54:46;;;;;;;60.17;33.73;;;8.90;99.90;;;;;;5062491;28;20532;-82
2024/02/11 03:57:13;;;;;;;66.33;36.30;;;8.90;99.90;;;;;;5062152;28;20532;-83
2024/02/11 03:59:40;;;;;;;65.33;38.77;;;8.90;99.90;;;;;;5061428;28;20465;-82
2024/02/11 04:02:07;;;;;;;80.80;38.10;;;8.90;99.90;;;;;;5061949;28;20460;-81
2024/02/11 04:04:35;;;;;;;59.97;35.80;;;8.80;99.90;;;;;;5062107;28;20473;-82
2024/02/11 04:07:03;;;;;;;69.20;35.47;;;8.80;99.90;;;;;;5062243;28;20492;-82
2024/02/11 04:09:30;;;;;;;61.70;33.87;;;8.90;99.90;;;;;;5061519;28;20456;-81
2024/02/11 04:11:58;;;;;;;71.70;36.80;;;8.90;99.90;;;;;;5061502;28;20465;-82
2024/02/11 04:14:25;;;;;;;68.50;34.83;;;8.90;99.90;;;;;;5060716;28;20441;-82
2024/02/11 04:16:55;;;;;;;73.20;35.43;;;8.90;99.90;;;;;;5061570;28;20532;-81
2024/02/11 04:19:22;;;;;;;64.83;36.30;;;8.90;99.90;;;;;;5060832;28;20831;-82
2024/02/11 04:21:49;;;;;;;69.17;36.67;;;8.80;99.90;;;;;;5062584;28;20476;-82
2024/02/11 04:24:21;;;;;;;59.77;36.30;;;8.80;99.90;;;;;;5062455;28;20457;-83
2024/02/11 04:26:53;;;;;;;66.90;35.77;;;8.80;99.90;;;;;;5070725;28;20529;-82
2024/02/11 04:29:20;;;;;;;67.37;36.87;;;8.80;99.90;;;;;;5068995;28;20434;-82
2024/02/11 04:31:47;;;;;;;63.37;34.27;;;8.80;99.90;;;;;;5066281;28;20478;-82
2024/02/11 04:34:14;;;;;;;65.50;36.13;;;8.80;99.90;;;;;;5062989;28;20447;-82
2024/02/11 04:36:41;;;;;;;77.03;35.83;;;8.80;99.90;;;;;;5061981;28;20465;-82
2024/02/11 04:39:08;;;;;;;68.30;36.53;;;8.80;99.90;;;;;;5061773;28;20443;-82
2024/02/11 04:41:37;;;;;;;72.17;38.43;;;8.80;99.90;;;;;;5070768;28;20474;-83
2024/02/11 04:44:05;;;;;;;67.43;35.20;;;8.80;99.90;;;;;;5073308;28;20430;-82
2024/02/11 04:46:32;;;;;;;80.37;39.47;;;8.80;99.90;;;;;;5073797;28;20478;-83
2024/02/11 04:48:59;;;;;;;63.80;35.20;;;8.80;99.90;;;;;;5059563;28;20963;-81
2024/02/11 04:51:28;;;;;;;79.23;37.80;;;8.70;99.90;;;;;;5056714;28;20549;-81
2024/02/11 04:53:57;;;;;;;68.80;36.60;;;8.70;99.90;;;;;;5056252;28;20485;-83
2024/02/11 04:56:24;;;;;;;67.27;35.30;;;8.70;99.90;;;;;;5058456;28;20477;-82
2024/02/11 04:58:53;;;;;;;70.67;37.77;;;8.70;99.90;;;;;;5057637;28;20791;-82
2024/02/11 05:01:20;;;;;;;64.87;34.43;;;8.80;99.90;;;;;;5058916;28;20469;-82
2024/02/11 05:03:47;;;;;;;65.83;35.83;;;8.70;99.90;;;;;;5059580;28;20455;-81
2024/02/11 05:06:18;;;;;;;65.03;34.13;;;8.80;99.90;;;;;;5059029;28;20833;-82
2024/02/11 05:08:46;;;;;;;73.97;36.80;;;8.70;99.90;;;;;;5058950;28;20401;-82
2024/02/11 05:11:13;;;;;;;65.67;34.93;;;8.70;99.90;;;;;;5057720;28;20476;-81
2024/02/11 05:13:43;;;;;;;74.43;38.30;;;8.70;99.90;;;;;;5067442;28;20869;-80
2024/02/11 05:16:14;;;;;;;77.50;39.40;;;8.70;99.90;;;;;;5062815;28;21006;-82
2024/02/11 05:18:42;;;;;;;70.60;35.30;;;8.70;99.90;;;;;;5058743;28;20573;-81
2024/02/11 05:21:09;;;;;;;68.60;36.33;;;8.60;99.90;;;;;;5060684;28;20424;-80
2024/02/11 05:23:36;;;;;;;66.67;37.13;;;8.70;99.90;;;;;;5058067;28;20461;-80
2024/02/11 05:26:05;;;;;;;66.90;35.63;;;8.60;99.90;;;;;;5060137;28;20509;-82
2024/02/11 05:28:34;;;;;;;74.40;36.53;;;8.60;99.90;;;;;;5060921;28;20551;-82
2024/02/11 05:31:01;;;;;;;66.23;37.43;;;8.60;99.90;;;;;;5080960;22;20484;-87
2024/02/11 05:33:29;;;;;;;69.27;37.40;;;8.70;99.90;;;;;;5075687;28;20449;-87
2024/02/11 05:35:56;;;;;;;69.07;35.80;;;8.60;99.90;;;;;;5059453;28;20469;-87
2024/02/11 05:38:24;;;;;;;71.07;36.80;;;8.60;99.90;;;;;;5059135;28;20441;-90
2024/02/11 05:40:56;;;;;;;75.47;36.20;;;8.60;99.90;;;;;;5059432;28;20473;-89
2024/02/11 05:43:23;;;;;;;75.20;39.67;;;8.60;99.90;;;;;;5059358;28;20461;-89
2024/02/11 05:45:50;;;;;;;67.20;37.33;;;8.60;99.90;;;;;;5073279;28;20453;-88
2024/02/11 05:48:17;;;;;;;77.23;36.83;;;8.50;99.90;;;;;;5073098;28;20483;-88
2024/02/11 05:50:46;;;;;;;81.97;40.53;;;8.50;99.90;;;;;;5072824;28;20470;-87
2024/02/11 05:53:13;;;;;;;80.50;39.50;;;8.50;99.90;;;;;;5068147;28;20429;-87
2024/02/11 05:55:40;;;;;;;69.07;38.80;;;8.50;99.90;;;;;;5072129;28;20461;-88
2024/02/11 05:58:07;;;;;;;68.63;36.90;;;8.50;99.90;;;;;;5074041;28;20505;-87
2024/02/11 06:00:36;;;;;;;66.57;35.33;;;8.50;99.90;;;;;;5070132;28;20469;-86
2024/02/11 06:03:03;;;;;;;80.70;37.83;;;8.50;99.90;;;;;;5068310;28;20454;-87
2024/02/11 06:05:30;;;;;;;78.90;38.30;;;8.50;99.90;;;;;;5060490;28;20492;-87
2024/02/11 06:08:00;;;;;;;76.63;37.00;;;8.50;99.90;;;;;;5056261;28;20456;-87
2024/02/11 06:10:29;;;;;;;80.27;37.20;;;8.50;99.90;;;;;;5059244;28;20981;-87
2024/02/11 06:12:57;;;;;;;76.83;38.23;;;8.50;99.90;;;;;;5056571;28;20441;-87
2024/02/11 06:15:25;;;;;;;73.93;35.60;;;8.50;99.90;;;;;;5067839;28;20449;-87
2024/02/11 06:17:53;;;;;;;69.73;37.07;;;8.40;99.90;;;;;;5074618;28;20453;-87
2024/02/11 06:20:21;;;;;;;84.13;37.13;;;8.40;99.90;;;;;;5076329;28;20465;-88
2024/02/11 06:22:50;;;;;;;81.70;38.00;;;8.40;99.90;;;;;;5071330;28;20457;-87
2024/02/11 06:25:20;;;;;;;79.60;40.70;;;8.40;99.90;;;;;;5069572;28;20938;-86
2024/02/11 06:27:51;;;;;;;88.83;40.47;;;8.40;99.90;;;;;;5064045;28;20473;-88
2024/02/11 06:30:19;;;;;;;73.77;35.00;;;8.40;99.90;;;;;;5062263;28;20473;-88
2024/02/11 06:32:47;;;;;;;77.47;36.77;;;8.40;99.90;;;;;;5064728;28;20480;-88
2024/02/11 06:35:14;;;;;;;75.90;38.17;;;8.30;99.90;;;;;;5060879;28;20420;-89
2024/02/11 06:37:42;;;;;;;85.43;36.33;;;8.30;99.90;;;;;;5062944;28;20420;-88
2024/02/11 06:40:16;;;;;;;78.20;37.57;;;8.30;99.90;;;;;;5060220;28;20812;-88
2024/02/11 06:42:47;;;;;;;81.07;38.10;;;8.30;99.90;;;;;;5059837;28;20440;-89
2024/02/11 06:45:14;;;;;;;80.53;37.70;;;8.30;99.90;;;;;;5059536;28;20437;-88
2024/02/11 06:47:41;;;;;;;82.93;38.67;;;8.30;99.90;;;;;;5058451;28;20489;-88
2024/02/11 06:50:10;;;;;;;75.00;38.77;;;8.30;99.90;;;;;;5063938;28;20445;-88
2024/02/11 06:52:37;;;;;;;82.80;36.90;;;8.30;99.90;;;;;;5068074;28;20518;-88
2024/02/11 06:55:05;;;;;;;91.17;39.33;;;8.20;99.90;;;;;;5060202;28;20445;-88
2024/02/11 06:57:32;;;;;;;78.50;37.80;;;8.20;99.90;;;;;;5063768;28;20445;-88
2024/02/11 07:00:00;;;;;;;99.17;38.53;;;8.30;99.90;;;;;;5066740;28;20548;-88
2024/02/11 07:02:28;;;;;;;88.33;39.23;;;8.20;99.90;;;;;;5078838;28;20484;-87
2024/02/11 07:04:55;;;;;;;88.83;38.07;;;8.20;99.90;;;;;;5080212;28;20433;-87
2024/02/11 07:07:23;;;;;;;72.67;36.73;;;8.20;99.90;;;;;;5080443;28;20497;-87
2024/02/11 07:09:50;;;;;;;78.20;36.57;;;8.20;99.90;;;;;;5067279;28;20421;-87
2024/02/11 07:12:17;;;;;;;89.33;40.13;;;8.20;99.90;;;;;;5069257;28;20465;-87
2024/02/11 07:14:46;;;;;;;80.67;38.73;;;8.10;99.90;;;;;;5061587;28;20459;-88
2024/02/11 07:17:15;;;;;;;86.60;35.83;;;8.20;99.90;;;;;;5060654;28;20453;-89
2024/02/11 07:19:42;;;;;;;76.97;38.23;;;8.20;99.90;;;;;;5060788;28;20430;-89
2024/02/11 07:22:09;;;;;;;86.00;37.53;;;8.20;99.90;;;;;;5059357;28;20497;-88
2024/02/11 07:24:37;;;;;;;69.70;36.30;;;8.20;99.90;;;;;;5059182;28;20445;-88
2024/02/11 07:27:06;;;;;;;80.10;37.80;;;8.20;99.90;;;;;;5058699;28;20460;-88
2024/02/11 07:29:33;;;;;;;69.93;35.63;;;8.20;99.90;;;;;;5059427;28;20964;-88
2024/02/11 07:32:00;;;;;;;89.03;38.60;;;8.20;99.90;;;;;;5061409;28;20568;-88
2024/02/11 07:34:29;;;;;;;73.87;37.20;;;8.20;99.90;;;;;;5062285;28;20480;-88
2024/02/11 07:36:58;;;;;;;76.77;35.40;;;8.20;99.90;;;;;;5066140;28;20454;-88
2024/02/11 07:39:25;;;;;;;78.63;37.90;;;8.20;99.90;;;;;;5072138;28;20453;-88
2024/02/11 07:41:51;;;;;;;81.43;39.93;;;8.20;99.90;;;;;;5078282;28;20485;-88
2024/02/11 07:44:18;;;;;;;74.53;36.13;;;8.20;99.90;;;;;;5075323;28;20781;-88
2024/02/11 07:46:45;;;;;;;72.43;35.37;;;8.20;99.90;;;;;;5063485;28;20484;-88
2024/02/11 07:49:13;;;;;;;79.40;36.97;;;8.20;99.90;;;;;;5060547;28;20508;-90
2024/02/11 07:51:44;;;;;;;72.77;37.50;;;8.20;99.90;;;;;;5074777;28;20438;-89
2024/02/11 07:54:11;;;;;;;76.90;35.30;;;8.20;99.90;;;;;;5062598;28;20834;-89
2024/02/11 07:56:39;;;;;;;86.00;34.10;;;8.20;99.90;;;;;;5061524;28;20949;-88
2024/02/11 07:59:06;;;;;;;68.53;37.07;;;8.20;99.90;;;;;;5059813;28;20456;-88
2024/02/11 08:01:34;;;;;;;72.83;34.23;;;8.30;99.90;;;;;;5059257;28;20528;-89
2024/02/11 08:04:01;;;;;;;72.97;35.83;;;8.30;99.90;;;;;;5060264;28;20453;-89
2024/02/11 08:06:30;;;;;;;81.93;36.13;;;8.30;99.90;;;;;;5060281;28;20487;-88
2024/02/11 08:08:59;;;;;;;65.67;33.30;;;8.20;99.90;;;;;;5058791;28;20504;-87
2024/02/11 08:11:25;;;;;;;88.10;37.40;;;8.30;99.90;;;;;;5058406;28;20537;-87
2024/02/11 08:13:54;;;;;;;65.30;33.40;;;8.30;99.90;;;;;;5067036;28;20485;-87
2024/02/11 08:16:22;;;;;;;68.47;34.87;;;8.20;99.90;;;;;;5079729;28;20445;-87
2024/02/11 08:18:49;;;;;;;73.60;35.43;;;8.20;99.90;;;;;;5079730;28;20475;-87
2024/02/11 08:21:16;;;;;;;70.73;38.27;;;8.30;99.90;;;;;;5079689;28;20454;-87
2024/02/11 08:23:44;;;;;;;74.23;36.30;;;8.30;99.90;;;;;;5079078;28;20466;-87
2024/02/11 08:26:12;;;;;;;78.30;36.00;;;8.30;99.90;;;;;;5077952;28;20436;-86
2024/02/11 08:28:39;;;;;;;87.00;37.00;;;8.30;99.90;;;;;;5077962;28;20492;-87
2024/02/11 08:31:06;;;;;;;74.13;35.37;;;8.30;99.90;;;;;;5077866;28;20492;-87
2024/02/11 08:33:33;;;;;;;65.80;35.00;;;8.30;99.90;;;;;;5079406;28;20510;-88
2024/02/11 08:36:00;;;;;;;80.60;38.10;;;8.40;99.90;;;;;;5079495;28;20428;-87
2024/02/11 08:38:27;;;;;;;77.13;37.03;;;8.30;99.90;;;;;;5075593;28;20480;-87
2024/02/11 08:40:57;;;;;;;69.23;32.70;;;8.30;99.90;;;;;;5061239;28;20537;-88
2024/02/11 08:43:26;;;;;;;71.30;34.33;;;8.40;99.90;;;;;;5059658;28;20473;-88
2024/02/11 08:45:53;;;;;;;82.03;37.77;;;8.40;99.90;;;;;;5057978;28;20821;-88
2024/02/11 08:48:20;;;;;;;66.50;34.07;;;8.40;99.90;;;;;;5065075;28;20484;-88
2024/02/11 08:50:47;;;;;;;70.20;35.07;;;8.40;99.90;;;;;;5060800;28;20525;-88
2024/02/11 08:53:15;;;;;;;74.70;34.53;;;8.40;99.90;;;;;;5061845;28;20522;-89
2024/02/11 08:55:42;;;;;;;74.40;36.30;;;8.40;99.90;;;;;;5059497;28;20449;-88
2024/02/11 08:58:14;;;;;;;78.60;35.87;;;8.40;99.90;;;;;;5058452;28;21025;-89
2024/02/11 09:00:42;;;;;;;74.53;34.60;;;8.40;99.90;;;;;;5058506;28;20903;-89
2024/02/11 09:03:25;;;;;;;72.43;35.90;;;8.30;99.10;;;;;;5058081;28;20826;-88
2024/02/11 09:05:55;;;;;;;96.07;51.90;;;8.50;99.90;;;;;;5059441;28;20410;-90
2024/02/11 09:08:24;;;;;;;74.40;37.67;;;8.50;99.90;;;;;;5059807;28;20500;-89
2024/02/11 09:10:51;;;;;;;71.50;34.30;;;8.40;95.80;;;;;;5058870;28;20466;-90
2024/02/11 09:13:18;;;;;;;71.50;34.47;;;8.50;94.30;;;;;;5061577;28;20454;-88
2024/02/11 09:15:47;;;;;;;75.50;34.20;;;8.50;92.30;;;;;;5058629;28;20528;-90
2024/02/11 09:18:15;;;;;;;74.23;37.73;;;8.40;92.10;;;;;;5057667;28;20478;-88
2024/02/11 09:20:43;;;;;;;80.07;33.17;;;8.50;90.90;;;;;;5061268;28;20902;-87
2024/02/11 09:23:11;;;;;;;74.50;36.10;;;8.50;88.80;;;;;;5062366;28;20451;-90
2024/02/11 09:25:38;;;;;;;75.43;35.90;;;8.40;80.80;;;;;;5062584;28;20449;-88
2024/02/11 09:28:06;;;;;;;70.30;34.93;;;8.50;89.20;;;;;;5062324;28;20463;-89
2024/02/11 09:30:33;;;;;;;80.60;40.00;;;8.50;93.80;;;;;;5069734;28;20481;-90
2024/02/11 09:33:02;;;;;;;81.77;38.90;;;8.50;93.30;;;;;;5066864;28;20472;-90
2024/02/11 09:35:30;;;;;;;78.30;36.50;;;8.50;93.20;;;;;;5066703;28;20444;-90
2024/02/11 09:38:00;;;;;;;71.30;36.70;;;8.50;93.10;;;;;;5066521;28;20452;-89
2024/02/11 09:40:28;;;;;;;77.73;36.00;;;8.40;98.20;;;;;;5061433;28;20440;-90
2024/02/11 09:43:00;;;;;;;73.37;35.63;;;8.40;99.90;;;;;;5061653;28;20453;-90
2024/02/11 09:45:29;;;;;;;77.43;38.07;;;8.40;99.90;;;;;;5071287;28;20440;-91
2024/02/11 09:47:58;;;;;;;71.70;40.33;;;8.40;99.90;;;;;;5076824;28;20469;-92
2024/02/11 09:50:28;;;;;;;83.53;37.67;;;8.40;99.90;;;;;;5076576;28;20473;-90
2024/02/11 09:52:56;;;;;;;70.50;36.53;;;8.60;99.90;;;;;;5075352;28;20457;-90
2024/02/11 09:55:24;;;;;;;66.70;38.10;;;8.40;99.90;;;;;;5070237;28;20463;-90
2024/02/11 09:57:56;;;;;;;79.70;38.23;;;8.50;99.90;;;;;;5062660;28;20440;-90
2024/02/11 10:00:25;;;;;;;65.00;32.07;;;8.50;99.90;;;;;;5065073;28;20470;-89
2024/02/11 10:02:52;;;;;;;70.33;34.50;;;8.60;99.90;;;;;;5063444;28;20453;-89
2024/02/11 10:05:27;;;;;;;64.33;34.93;;;8.50;99.90;;;;;;5062463;28;20829;-89
2024/02/11 10:07:58;;;;;;;65.23;35.30;;;8.50;99.90;;;;;;5063912;28;20415;-87
2024/02/11 10:10:25;;;;;;;59.53;33.13;;;8.50;99.90;;;;;;5063179;28;20462;-88
2024/02/11 10:12:52;;;;;;;71.80;37.37;;;8.50;99.90;;;;;;5062976;28;20434;-87
2024/02/11 10:15:20;;;;;;;58.17;32.50;;;8.60;99.90;;;;;;5073945;28;20584;-87
2024/02/11 10:17:47;;;;;;;67.73;35.40;;;8.60;99.90;;;;;;5081789;28;20467;-87
2024/02/11 10:20:17;;;;;;;;;;;;;;;;;;5077982;28;20337;-83
2024/02/11 10:28:08;;;;;;;;;;;;;;;;;;5051601;28;19916;-90
2024/02/11 10:30:35;;;;;;;;;;;;;;;;;;5064166;28;19928;-90
2024/02/11 10:33:03;;;;;;;;;;;;;;;;;;5063885;28;19920;-91
2024/02/11 10:35:30;;;;;;;;;;;;;;;;;;5063015;28;20430;-91
2024/02/11 10:38:01;;;;;;;;;;;;;;;;;;5062254;28;19927;-91
2024/02/11 10:40:32;;;;;;;;;;;9.10;1.00;;;;;;5064126;28;19925;-91
2024/02/11 10:42:59;;;;;;;;;;;9.10;1.00;;;;;;5065987;28;19921;-91
2024/02/11 10:45:27;;;;;;;;;;;9.10;1.00;;;;;;5064555;28;19990;-90
2024/02/11 10:47:54;;;;;;;;;;;9.10;1.00;;;;;;5062636;28;19921;-90
2024/02/11 10:50:21;;;;;;;;;;;9.40;1.00;;;;;;5063403;28;19921;-90
2024/02/11 10:52:50;;;;;;;;;;;10.20;1.00;;;;;;5065191;28;19921;-90
2024/02/11 10:55:21;;;;;;;;;;;10.00;1.00;;;;;;5064479;28;19927;-90
2024/02/11 10:57:55;;;;;;;;;;;9.40;1.00;;;;;;5075545;28;19919;-89
2024/02/11 11:00:22;;;;;;;;;;;8.20;1.00;;;;;;5078274;28;19928;-85
2024/02/11 11:02:58;;;;;;;;;;;10.60;1.00;;;;;;5078017;28;19971;-87
2024/02/11 11:05:29;;;;;;;;;;;10.10;1.00;;;;;;5077591;28;19978;-89
2024/02/11 11:07:57;;;;;;;;;;;9.30;1.00;;;;;;5073790;28;19993;-89
2024/02/11 11:10:28;;;;;;;;;;;9.40;1.00;;;;;;5076744;28;19930;-89
2024/02/11 11:12:58;;;;;;;;;;;9.50;1.00;;;;;;5080348;28;19927;-89
2024/02/11 11:15:26;;;;;;;;;;;9.20;1.00;;;;;;5080256;28;19920;-88
2024/02/11 11:17:57;;;;;;;;;;;9.60;1.00;;;;;;5080202;28;19952;-90
2024/02/11 11:20:36;;;;;;;;;;;9.20;1.00;;;;;;5077497;28;19920;-90
2024/02/11 11:23:05;;;;;;;;;;;;;;;;;;5063205;28;19921;-88
2024/02/11 11:25:37;;;;;;;;;;;9.60;1.00;;;;;;5062902;28;19921;-88
2024/02/11 11:28:05;;;;;;;;;;;;;;;;;;5062059;28;19929;-86
2024/02/11 13:45:47;;;;;;;;;;;;;;;;;;5057928;28;19921;-90
2024/02/11 13:48:14;;;;;;;;;;;;;;;;;;5057554;28;19909;-89
2024/02/11 13:50:41;;;;;;;;;;;;;;;;;;5056930;28;19905;-87
2024/02/11 13:53:08;;;;;;;;;;;;;;;;;;5057196;28;19964;-87
2024/02/11 13:55:38;;;;;;;;;;;;;;;;;;5057146;28;19921;-88
2024/02/11 13:58:05;;;;;;;;;;;;;;;;;;5057136;28;19920;-88
2024/02/11 14:00:33;;;;;;;;;;;;;;;;;;5058215;28;19916;-85
2024/02/11 14:03:00;;;;;;;;;;;;;;;;;;5058328;28;19913;-84
2024/02/11 14:05:27;;;;;;;;;;;;;;;;;;5057662;28;19921;-87
2024/02/11 14:07:54;;;;;;;;;;;;;;;;;;5056554;28;19905;-87
2024/02/11 14:10:21;;;;;;;;;;;;;;;;;;5057692;28;19909;-85
2024/02/11 14:12:48;;;;;;;;;;;;;;;;;;5057145;28;19976;-88
2024/02/11 14:15:15;;;;;;;;;;;;;;;;;;5052100;28;19921;-87
2024/02/11 14:17:46;;;;;;;;;;;;;;;;;;5050188;28;20008;-88
2024/02/11 14:20:13;;;;;;;;;;;;;;;;;;5048824;28;19921;-88
2024/02/11 14:22:40;;;;;;;;;;;;;;;;;;5050191;28;19948;-88
2024/02/11 14:25:08;;;;;;;;;;;;;;;;;;5057717;28;19976;-87
2024/02/11 14:27:35;;;;;;;;;;;;;;;;;;5056703;28;19921;-86
2024/02/11 14:30:03;;;;;;;;;;;;;;;;;;5056486;28;19960;-86
2024/02/11 14:32:30;;;;;;;;;;;;;;;;;;5058196;28;19916;-84
2024/02/11 14:34:58;;;;;;;;;;;;;;;;;;5058235;28;19909;-84
2024/02/11 14:37:25;;;;;;;;;;;;;;;;;;5058081;28;19909;-85
2024/02/11 14:39:52;;;;;;;;;;;;;;;;;;5057411;28;19921;-87
2024/02/11 14:42:19;;;;;;;;;;;;;;;;;;5056126;28;20008;-87
2024/02/11 14:44:47;;;;;;;;;;;;;;;;;;5055674;28;19941;-86
2024/02/11 14:47:14;;;;;;;;;;;;;;;;;;5056015;28;19921;-86
2024/02/11 14:49:42;;;;;;;;;;;;;;;;;;5053317;28;19921;-87
2024/02/11 14:52:09;;;;;;;;;;;;;;;;;;5052447;28;19931;-88
2024/02/11 14:54:37;;;;;;;;;;;;;;;;;;5050561;28;19960;-87
2024/02/11 14:57:05;;;;;;;;;;;;;;;;;;5050357;28;19960;-88
2024/02/11 14:59:33;;;;;;;;;;;;;;;;;;5049874;28;19967;-87
2024/02/11 15:02:00;;;;;;;;;;;;;;;;;;5049441;28;20016;-88
2024/02/11 15:04:27;;;;;;;;;;;;;;;;;;5049720;28;19920;-87
2024/02/11 15:06:57;;;;;;;;;;;;;;;;;;5049943;28;19925;-88
2024/02/11 15:09:23;;;;;;;;;;;;;;;;;;5048945;28;19928;-88
2024/02/11 15:11:51;;;;;;;;;;;;;;;;;;5049918;28;19947;-86
2024/02/11 15:14:21;;;;;;;;;;;;;;;;;;5049414;28;19952;-88
2024/02/11 15:16:48;;;;;;;;;;;;;;;;;;5049372;28;19927;-88
2024/02/11 15:19:15;;;;;;;;;;;;;;;;;;5047155;28;19921;-89
2024/02/11 15:21:45;;;;;;;;;;;;;;;;;;5056953;28;19973;-84
2024/02/11 15:24:13;;;;;;;;;;;;;;;;;;5060872;28;19909;-87
2024/02/11 15:26:40;;;;;;;;;;;;;;;;;;5060942;28;19905;-87
2024/02/11 15:29:07;;;;;;;;;;;;;;;;;;5059281;28;19912;-88
2024/02/11 15:31:41;;;;;;;;;;;;;;;;;;5048128;28;19921;-90
2024/02/11 15:34:11;;;;;;;;;;;;;;;;;;5045757;28;20325;-90
2024/02/11 15:36:43;;;;;;;;;;;;;;;;;;5045860;28;19921;-90
2024/02/11 15:39:10;;;;;;;;;;;;;;;;;;5050752;28;19924;-89
2024/02/11 15:41:37;;;;;;;;;;;;;;;;;;5046180;28;19927;-90